sensor_id;sensor_type;location;lat;lon;timestamp;P1;durP1;ratioP1;P2;durP2;ratioP2
40322;SDS011;26030;51.164;17.100;2023-05-19T00:05:35;3.50;;;2.30;;
40322;SDS011;26030;51.164;17.100;2023-05-19T00:10:43;6.00;;;2.20;;
40322;SDS011;26030;51.164;17.100;2023-05-19T00:15:48;5.00;;;1.80;;
40322;SDS011;26030;51.164;17.100;2023-05-19T00:20:52;3.10;;;1.50;;
40322;SDS011;26030;51.164;17.100;2023-05-19T00:25:56;2.40;;;1.60;;
40322;SDS011;26030;51.164;17.100;2023-05-19T00:31:01;3.00;;;1.30;;
40322;SDS011;26030;51.164;17.100;2023-05-19T00:36:07;2.90;;;1.70;;
40322;SDS011;26030;51.164;17.100;2023-05-19T00:41:11;5.60;;;1.50;;
40322;SDS011;26030;51.164;17.100;2023-05-19T00:46:15;1.70;;;1.40;;
40322;SDS011;26030;51.164;17.100;2023-05-19T00:51:19;1.70;;;1.40;;
40322;SDS011;26030;51.164;17.100;2023-05-19T00:56:23;2.10;;;1.60;;
40322;SDS011;26030;51.164;17.100;2023-05-19T01:01:29;1.90;;;1.30;;
40322;SDS011;26030;51.164;17.100;2023-05-19T01:06:35;2.60;;;1.90;;
40322;SDS011;26030;51.164;17.100;2023-05-19T01:11:42;2.60;;;1.60;;
40322;SDS011;26030;51.164;17.100;2023-05-19T01:16:51;4.10;;;1.70;;
40322;SDS011;26030;51.164;17.100;2023-05-19T01:33:10;2.50;;;1.60;;
40322;SDS011;26030;51.164;17.100;2023-05-19T01:38:18;2.50;;;1.40;;
40322;SDS011;26030;51.164;17.100;2023-05-19T01:43:25;2.50;;;1.70;;
40322;SDS011;26030;51.164;17.100;2023-05-19T01:48:29;1.70;;;1.60;;
40322;SDS011;26030;51.164;17.100;2023-05-19T01:53:34;2.60;;;1.80;;
40322;SDS011;26030;51.164;17.100;2023-05-19T01:58:43;1.40;;;1.30;;
40322;SDS011;26030;51.164;17.100;2023-05-19T02:04:12;2.70;;;2.10;;
40322;SDS011;26030;51.164;17.100;2023-05-19T02:14:38;1.80;;;1.50;;
40322;SDS011;26030;51.164;17.100;2023-05-19T02:19:43;3.30;;;2.10;;
40322;SDS011;26030;51.164;17.100;2023-05-19T02:24:47;1.80;;;1.20;;
40322;SDS011;26030;51.164;17.100;2023-05-19T02:29:55;1.40;;;1.30;;
40322;SDS011;26030;51.164;17.100;2023-05-19T02:35:00;1.60;;;1.50;;
40322;SDS011;26030;51.164;17.100;2023-05-19T02:40:05;1.70;;;1.60;;
40322;SDS011;26030;51.164;17.100;2023-05-19T02:45:10;2.20;;;1.60;;
40322;SDS011;26030;51.164;17.100;2023-05-19T02:50:16;3.60;;;1.30;;
40322;SDS011;26030;51.164;17.100;2023-05-19T02:55:20;2.20;;;1.50;;
40322;SDS011;26030;51.164;17.100;2023-05-19T03:00:24;1.70;;;1.40;;
40322;SDS011;26030;51.164;17.100;2023-05-19T03:05:29;2.20;;;1.50;;
40322;SDS011;26030;51.164;17.100;2023-05-19T03:10:34;2.40;;;1.40;;
40322;SDS011;26030;51.164;17.100;2023-05-19T03:15:38;1.70;;;1.40;;
40322;SDS011;26030;51.164;17.100;2023-05-19T03:20:42;2.00;;;1.60;;
40322;SDS011;26030;51.164;17.100;2023-05-19T03:25:47;1.90;;;1.50;;
40322;SDS011;26030;51.164;17.100;2023-05-19T03:30:52;1.40;;;1.30;;
40322;SDS011;26030;51.164;17.100;2023-05-19T03:35:59;1.40;;;1.10;;
40322;SDS011;26030;51.164;17.100;2023-05-19T03:41:04;1.90;;;1.10;;
40322;SDS011;26030;51.164;17.100;2023-05-19T03:46:09;1.20;;;1.10;;
40322;SDS011;26030;51.164;17.100;2023-05-19T03:51:22;3.60;;;1.30;;
40322;SDS011;26030;51.164;17.100;2023-05-19T03:56:29;1.90;;;1.60;;
40322;SDS011;26030;51.164;17.100;2023-05-19T04:01:35;1.20;;;1.10;;
40322;SDS011;26030;51.164;17.100;2023-05-19T04:06:39;3.10;;;1.40;;
40322;SDS011;26030;51.164;17.100;2023-05-19T04:11:43;1.20;;;1.10;;
40322;SDS011;26030;51.164;17.100;2023-05-19T04:16:48;1.40;;;1.10;;
40322;SDS011;26030;51.164;17.100;2023-05-19T04:21:52;2.10;;;1.80;;
40322;SDS011;26030;51.164;17.100;2023-05-19T04:26:56;1.20;;;0.90;;
40322;SDS011;26030;51.164;17.100;2023-05-19T04:32:05;1.40;;;1.30;;
40322;SDS011;26030;51.164;17.100;2023-05-19T04:37:13;1.20;;;1.00;;
40322;SDS011;26030;51.164;17.100;2023-05-19T04:42:20;1.50;;;1.30;;
40322;SDS011;26030;51.164;17.100;2023-05-19T04:47:25;1.20;;;1.10;;
40322;SDS011;26030;51.164;17.100;2023-05-19T04:52:31;0.90;;;0.90;;
40322;SDS011;26030;51.164;17.100;2023-05-19T04:57:36;1.90;;;1.50;;
40322;SDS011;26030;51.164;17.100;2023-05-19T05:02:42;1.60;;;1.50;;
40322;SDS011;26030;51.164;17.100;2023-05-19T05:07:47;1.70;;;1.30;;
40322;SDS011;26030;51.164;17.100;2023-05-19T05:12:53;1.40;;;1.30;;
40322;SDS011;26030;51.164;17.100;2023-05-19T05:17:58;1.80;;;1.60;;
40322;SDS011;26030;51.164;17.100;2023-05-19T05:23:03;1.40;;;1.30;;
40322;SDS011;26030;51.164;17.100;2023-05-19T05:28:08;2.40;;;1.50;;
40322;SDS011;26030;51.164;17.100;2023-05-19T05:33:12;1.50;;;1.10;;
40322;SDS011;26030;51.164;17.100;2023-05-19T05:38:17;1.80;;;1.10;;
40322;SDS011;26030;51.164;17.100;2023-05-19T05:43:21;1.50;;;0.90;;
40322;SDS011;26030;51.164;17.100;2023-05-19T05:48:31;1.70;;;1.50;;
40322;SDS011;26030;51.164;17.100;2023-05-19T05:53:39;2.80;;;1.70;;
40322;SDS011;26030;51.164;17.100;2023-05-19T05:58:46;5.30;;;1.40;;
40322;SDS011;26030;51.164;17.100;2023-05-19T06:03:51;4.00;;;1.40;;
40322;SDS011;26030;51.164;17.100;2023-05-19T06:08:57;3.60;;;1.90;;
40322;SDS011;26030;51.164;17.100;2023-05-19T06:14:03;1.90;;;1.40;;
40322;SDS011;26030;51.164;17.100;2023-05-19T06:19:29;10.40;;;1.90;;
40322;SDS011;26030;51.164;17.100;2023-05-19T06:24:34;7.90;;;2.10;;
40322;SDS011;26030;51.164;17.100;2023-05-19T06:29:41;9.70;;;2.10;;
40322;SDS011;26030;51.164;17.100;2023-05-19T06:34:45;7.80;;;2.00;;
40322;SDS011;26030;51.164;17.100;2023-05-19T06:39:57;3.50;;;1.70;;
40322;SDS011;26030;51.164;17.100;2023-05-19T06:45:01;4.60;;;2.40;;
40322;SDS011;26030;51.164;17.100;2023-05-19T06:50:06;6.00;;;2.30;;
40322;SDS011;26030;51.164;17.100;2023-05-19T06:55:11;6.70;;;3.10;;
40322;SDS011;26030;51.164;17.100;2023-05-19T07:00:16;3.70;;;1.20;;
40322;SDS011;26030;51.164;17.100;2023-05-19T07:05:26;6.70;;;1.60;;
40322;SDS011;26030;51.164;17.100;2023-05-19T07:10:32;3.60;;;1.60;;
40322;SDS011;26030;51.164;17.100;2023-05-19T07:15:38;3.90;;;1.50;;
40322;SDS011;26030;51.164;17.100;2023-05-19T07:20:43;3.30;;;1.50;;
40322;SDS011;26030;51.164;17.100;2023-05-19T07:25:47;4.00;;;1.60;;
40322;SDS011;26030;51.164;17.100;2023-05-19T07:30:51;3.70;;;1.50;;
40322;SDS011;26030;51.164;17.100;2023-05-19T07:35:55;2.00;;;1.20;;
40322;SDS011;26030;51.164;17.100;2023-05-19T07:41:00;1.30;;;1.00;;
40322;SDS011;26030;51.164;17.100;2023-05-19T07:46:05;3.20;;;1.30;;
40322;SDS011;26030;51.164;17.100;2023-05-19T07:51:11;2.70;;;1.20;;
40322;SDS011;26030;51.164;17.100;2023-05-19T07:56:15;2.00;;;1.20;;
40322;SDS011;26030;51.164;17.100;2023-05-19T08:01:19;1.80;;;1.30;;
40322;SDS011;26030;51.164;17.100;2023-05-19T08:06:23;6.10;;;2.00;;
40322;SDS011;26030;51.164;17.100;2023-05-19T08:11:27;2.00;;;1.40;;
40322;SDS011;26030;51.164;17.100;2023-05-19T08:16:31;2.50;;;1.80;;
40322;SDS011;26030;51.164;17.100;2023-05-19T08:21:36;1.60;;;1.30;;
40322;SDS011;26030;51.164;17.100;2023-05-19T08:26:40;4.40;;;1.70;;
40322;SDS011;26030;51.164;17.100;2023-05-19T08:31:44;2.00;;;1.80;;
40322;SDS011;26030;51.164;17.100;2023-05-19T08:36:49;2.20;;;1.40;;
40322;SDS011;26030;51.164;17.100;2023-05-19T08:41:53;2.00;;;1.80;;
40322;SDS011;26030;51.164;17.100;2023-05-19T08:47:03;3.60;;;1.40;;
40322;SDS011;26030;51.164;17.100;2023-05-19T08:57:29;2.00;;;1.40;;
40322;SDS011;26030;51.164;17.100;2023-05-19T09:02:37;2.80;;;1.30;;
40322;SDS011;26030;51.164;17.100;2023-05-19T09:08:02;2.20;;;1.70;;
40322;SDS011;26030;51.164;17.100;2023-05-19T09:13:07;1.60;;;1.50;;
40322;SDS011;26030;51.164;17.100;2023-05-19T09:18:13;2.30;;;1.70;;
40322;SDS011;26030;51.164;17.100;2023-05-19T09:23:17;2.30;;;2.00;;
40322;SDS011;26030;51.164;17.100;2023-05-19T09:28:32;3.70;;;1.60;;
40322;SDS011;26030;51.164;17.100;2023-05-19T09:33:38;2.40;;;2.10;;
40322;SDS011;26030;51.164;17.100;2023-05-19T09:38:46;3.10;;;1.80;;
40322;SDS011;26030;51.164;17.100;2023-05-19T09:43:54;1.60;;;1.40;;
40322;SDS011;26030;51.164;17.100;2023-05-19T09:49:09;1.50;;;1.30;;
40322;SDS011;26030;51.164;17.100;2023-05-19T09:54:16;2.60;;;2.20;;
40322;SDS011;26030;51.164;17.100;2023-05-19T09:59:23;2.20;;;1.70;;
40322;SDS011;26030;51.164;17.100;2023-05-19T10:04:28;3.20;;;1.90;;
40322;SDS011;26030;51.164;17.100;2023-05-19T10:09:35;1.20;;;1.10;;
40322;SDS011;26030;51.164;17.100;2023-05-19T10:14:39;2.10;;;1.40;;
40322;SDS011;26030;51.164;17.100;2023-05-19T10:19:44;3.80;;;2.40;;
40322;SDS011;26030;51.164;17.100;2023-05-19T10:24:48;4.60;;;2.40;;
40322;SDS011;26030;51.164;17.100;2023-05-19T10:29:53;2.50;;;2.00;;
40322;SDS011;26030;51.164;17.100;2023-05-19T10:40:36;1.60;;;1.50;;
40322;SDS011;26030;51.164;17.100;2023-05-19T10:45:46;1.60;;;1.40;;
40322;SDS011;26030;51.164;17.100;2023-05-19T10:50:53;1.60;;;1.50;;
40322;SDS011;26030;51.164;17.100;2023-05-19T10:56:00;2.10;;;1.60;;
40322;SDS011;26030;51.164;17.100;2023-05-19T11:01:19;1.90;;;1.70;;
40322;SDS011;26030;51.164;17.100;2023-05-19T11:06:28;2.10;;;1.60;;
40322;SDS011;26030;51.164;17.100;2023-05-19T11:11:52;6.80;;;1.90;;
40322;SDS011;26030;51.164;17.100;2023-05-19T11:16:58;4.10;;;2.30;;
40322;SDS011;26030;51.164;17.100;2023-05-19T11:22:12;3.60;;;2.00;;
40322;SDS011;26030;51.164;17.100;2023-05-19T11:27:31;4.10;;;2.30;;
40322;SDS011;26030;51.164;17.100;2023-05-19T11:32:35;9.70;;;1.80;;
40322;SDS011;26030;51.164;17.100;2023-05-19T11:37:45;2.80;;;1.80;;
40322;SDS011;26030;51.164;17.100;2023-05-19T11:42:51;2.70;;;1.90;;
40322;SDS011;26030;51.164;17.100;2023-05-19T11:47:56;2.70;;;2.10;;
40322;SDS011;26030;51.164;17.100;2023-05-19T11:53:06;3.90;;;2.20;;
40322;SDS011;26030;51.164;17.100;2023-05-19T11:58:10;3.30;;;1.90;;
40322;SDS011;26030;51.164;17.100;2023-05-19T12:03:14;2.70;;;2.30;;
40322;SDS011;26030;51.164;17.100;2023-05-19T12:08:20;2.70;;;2.00;;
40322;SDS011;26030;51.164;17.100;2023-05-19T12:13:24;2.70;;;1.90;;
40322;SDS011;26030;51.164;17.100;2023-05-19T12:18:29;2.80;;;1.60;;
40322;SDS011;26030;51.164;17.100;2023-05-19T12:23:34;2.90;;;1.90;;
40322;SDS011;26030;51.164;17.100;2023-05-19T12:28:39;2.40;;;2.00;;
40322;SDS011;26030;51.164;17.100;2023-05-19T12:33:47;2.80;;;2.00;;
40322;SDS011;26030;51.164;17.100;2023-05-19T12:38:54;4.00;;;1.80;;
40322;SDS011;26030;51.164;17.100;2023-05-19T12:43:58;2.90;;;2.10;;
40322;SDS011;26030;51.164;17.100;2023-05-19T12:49:03;3.60;;;2.20;;
40322;SDS011;26030;51.164;17.100;2023-05-19T12:54:07;2.50;;;2.00;;
40322;SDS011;26030;51.164;17.100;2023-05-19T12:59:22;6.50;;;3.00;;
40322;SDS011;26030;51.164;17.100;2023-05-19T13:04:40;2.50;;;1.70;;
40322;SDS011;26030;51.164;17.100;2023-05-19T13:09:44;3.00;;;2.00;;
40322;SDS011;26030;51.164;17.100;2023-05-19T13:14:50;3.60;;;2.40;;
40322;SDS011;26030;51.164;17.100;2023-05-19T13:19:59;5.30;;;2.20;;
40322;SDS011;26030;51.164;17.100;2023-05-19T13:25:04;3.30;;;2.20;;
40322;SDS011;26030;51.164;17.100;2023-05-19T13:30:08;3.50;;;2.40;;
40322;SDS011;26030;51.164;17.100;2023-05-19T13:35:13;2.80;;;2.30;;
40322;SDS011;26030;51.164;17.100;2023-05-19T13:40:17;2.30;;;2.10;;
40322;SDS011;26030;51.164;17.100;2023-05-19T13:45:22;2.30;;;2.00;;
40322;SDS011;26030;51.164;17.100;2023-05-19T13:50:26;4.00;;;2.60;;
40322;SDS011;26030;51.164;17.100;2023-05-19T13:55:31;3.20;;;2.20;;
40322;SDS011;26030;51.164;17.100;2023-05-19T14:00:37;4.40;;;2.80;;
40322;SDS011;26030;51.164;17.100;2023-05-19T14:05:41;6.90;;;4.00;;
40322;SDS011;26030;51.164;17.100;2023-05-19T14:10:46;3.00;;;2.60;;
40322;SDS011;26030;51.164;17.100;2023-05-19T14:15:50;3.10;;;2.80;;
40322;SDS011;26030;51.164;17.100;2023-05-19T14:20:54;2.70;;;2.50;;
40322;SDS011;26030;51.164;17.100;2023-05-19T14:25:59;5.60;;;3.50;;
40322;SDS011;26030;51.164;17.100;2023-05-19T14:31:04;3.30;;;2.80;;
40322;SDS011;26030;51.164;17.100;2023-05-19T14:36:09;2.90;;;2.70;;
40322;SDS011;26030;51.164;17.100;2023-05-19T14:41:13;3.00;;;2.70;;
40322;SDS011;26030;51.164;17.100;2023-05-19T14:46:17;3.40;;;3.10;;
40322;SDS011;26030;51.164;17.100;2023-05-19T14:51:21;4.10;;;3.30;;
40322;SDS011;26030;51.164;17.100;2023-05-19T14:56:26;3.10;;;2.80;;
40322;SDS011;26030;51.164;17.100;2023-05-19T15:01:30;5.40;;;3.00;;
40322;SDS011;26030;51.164;17.100;2023-05-19T15:06:34;6.40;;;3.10;;
40322;SDS011;26030;51.164;17.100;2023-05-19T15:11:38;4.90;;;3.40;;
40322;SDS011;26030;51.164;17.100;2023-05-19T15:16:42;5.90;;;3.80;;
40322;SDS011;26030;51.164;17.100;2023-05-19T15:21:47;15.10;;;4.70;;
40322;SDS011;26030;51.164;17.100;2023-05-19T15:26:53;6.50;;;3.90;;
40322;SDS011;26030;51.164;17.100;2023-05-19T15:31:58;6.60;;;3.60;;
40322;SDS011;26030;51.164;17.100;2023-05-19T15:37:02;6.10;;;4.70;;
40322;SDS011;26030;51.164;17.100;2023-05-19T15:42:07;8.60;;;5.00;;
40322;SDS011;26030;51.164;17.100;2023-05-19T15:47:11;11.40;;;5.30;;
40322;SDS011;26030;51.164;17.100;2023-05-19T15:52:15;9.20;;;4.10;;
40322;SDS011;26030;51.164;17.100;2023-05-19T15:57:19;15.60;;;7.40;;
40322;SDS011;26030;51.164;17.100;2023-05-19T16:02:23;12.40;;;6.90;;
40322;SDS011;26030;51.164;17.100;2023-05-19T16:07:28;9.70;;;5.20;;
40322;SDS011;26030;51.164;17.100;2023-05-19T16:12:32;7.70;;;5.40;;
40322;SDS011;26030;51.164;17.100;2023-05-19T16:17:37;8.10;;;4.50;;
40322;SDS011;26030;51.164;17.100;2023-05-19T16:22:43;6.50;;;5.10;;
40322;SDS011;26030;51.164;17.100;2023-05-19T16:27:47;7.20;;;4.80;;
40322;SDS011;26030;51.164;17.100;2023-05-19T16:32:51;7.80;;;5.80;;
40322;SDS011;26030;51.164;17.100;2023-05-19T16:37:58;9.70;;;6.50;;
40322;SDS011;26030;51.164;17.100;2023-05-19T16:43:03;6.90;;;5.20;;
40322;SDS011;26030;51.164;17.100;2023-05-19T16:48:07;10.40;;;5.20;;
40322;SDS011;26030;51.164;17.100;2023-05-19T16:53:11;6.10;;;4.70;;
40322;SDS011;26030;51.164;17.100;2023-05-19T16:58:16;8.00;;;4.80;;
40322;SDS011;26030;51.164;17.100;2023-05-19T17:03:20;9.70;;;5.20;;
40322;SDS011;26030;51.164;17.100;2023-05-19T17:08:24;5.00;;;4.50;;
40322;SDS011;26030;51.164;17.100;2023-05-19T17:13:29;16.40;;;5.10;;
40322;SDS011;26030;51.164;17.100;2023-05-19T17:18:36;8.20;;;4.90;;
40322;SDS011;26030;51.164;17.100;2023-05-19T17:23:40;9.50;;;5.30;;
40322;SDS011;26030;51.164;17.100;2023-05-19T17:28:44;7.90;;;5.50;;
40322;SDS011;26030;51.164;17.100;2023-05-19T17:33:49;8.50;;;6.10;;
40322;SDS011;26030;51.164;17.100;2023-05-19T17:38:53;12.30;;;5.80;;
40322;SDS011;26030;51.164;17.100;2023-05-19T17:43:58;11.90;;;6.60;;
40322;SDS011;26030;51.164;17.100;2023-05-19T17:49:08;17.10;;;6.10;;
40322;SDS011;26030;51.164;17.100;2023-05-19T17:54:18;10.30;;;6.60;;
40322;SDS011;26030;51.164;17.100;2023-05-19T17:59:23;17.80;;;7.10;;
40322;SDS011;26030;51.164;17.100;2023-05-19T18:04:29;10.40;;;6.10;;
40322;SDS011;26030;51.164;17.100;2023-05-19T18:09:36;13.50;;;7.40;;
40322;SDS011;26030;51.164;17.100;2023-05-19T18:14:43;12.90;;;6.80;;
40322;SDS011;26030;51.164;17.100;2023-05-19T18:19:47;18.10;;;8.00;;
40322;SDS011;26030;51.164;17.100;2023-05-19T18:24:53;18.70;;;8.00;;
40322;SDS011;26030;51.164;17.100;2023-05-19T18:29:58;16.10;;;8.30;;
40322;SDS011;26030;51.164;17.100;2023-05-19T18:35:04;17.10;;;7.70;;
40322;SDS011;26030;51.164;17.100;2023-05-19T18:40:11;18.10;;;8.20;;
40322;SDS011;26030;51.164;17.100;2023-05-19T18:45:17;13.20;;;7.30;;
40322;SDS011;26030;51.164;17.100;2023-05-19T18:50:22;13.80;;;7.20;;
40322;SDS011;26030;51.164;17.100;2023-05-19T18:55:27;15.10;;;7.60;;
40322;SDS011;26030;51.164;17.100;2023-05-19T19:00:34;14.40;;;8.40;;
40322;SDS011;26030;51.164;17.100;2023-05-19T19:05:39;12.30;;;7.50;;
40322;SDS011;26030;51.164;17.100;2023-05-19T19:10:49;13.10;;;7.90;;
40322;SDS011;26030;51.164;17.100;2023-05-19T19:16:03;11.20;;;7.40;;
40322;SDS011;26030;51.164;17.100;2023-05-19T19:21:10;14.40;;;7.60;;
40322;SDS011;26030;51.164;17.100;2023-05-19T19:26:14;15.90;;;8.80;;
40322;SDS011;26030;51.164;17.100;2023-05-19T19:31:18;13.20;;;7.50;;
40322;SDS011;26030;51.164;17.100;2023-05-19T19:36:24;14.40;;;8.30;;
40322;SDS011;26030;51.164;17.100;2023-05-19T19:41:29;15.10;;;8.00;;
40322;SDS011;26030;51.164;17.100;2023-05-19T19:46:33;12.80;;;7.50;;
40322;SDS011;26030;51.164;17.100;2023-05-19T19:51:38;12.90;;;7.60;;
40322;SDS011;26030;51.164;17.100;2023-05-19T19:56:42;12.60;;;7.50;;
40322;SDS011;26030;51.164;17.100;2023-05-19T20:01:52;12.50;;;6.60;;
40322;SDS011;26030;51.164;17.100;2023-05-19T20:06:57;14.50;;;7.20;;
40322;SDS011;26030;51.164;17.100;2023-05-19T20:12:01;12.40;;;7.50;;
40322;SDS011;26030;51.164;17.100;2023-05-19T20:17:05;13.70;;;6.80;;
40322;SDS011;26030;51.164;17.100;2023-05-19T20:22:09;16.40;;;6.70;;
40322;SDS011;26030;51.164;17.100;2023-05-19T20:27:13;13.40;;;6.60;;
40322;SDS011;26030;51.164;17.100;2023-05-19T20:32:17;11.30;;;7.20;;
40322;SDS011;26030;51.164;17.100;2023-05-19T20:37:21;13.30;;;6.90;;
40322;SDS011;26030;51.164;17.100;2023-05-19T20:42:25;14.70;;;7.70;;
40322;SDS011;26030;51.164;17.100;2023-05-19T20:47:30;13.50;;;7.60;;
40322;SDS011;26030;51.164;17.100;2023-05-19T20:52:34;15.20;;;8.10;;
40322;SDS011;26030;51.164;17.100;2023-05-19T20:57:39;15.70;;;8.70;;
40322;SDS011;26030;51.164;17.100;2023-05-19T21:02:43;14.70;;;8.10;;
40322;SDS011;26030;51.164;17.100;2023-05-19T21:07:48;13.00;;;7.90;;
40322;SDS011;26030;51.164;17.100;2023-05-19T21:12:52;11.10;;;7.90;;
40322;SDS011;26030;51.164;17.100;2023-05-19T21:17:56;10.20;;;7.30;;
40322;SDS011;26030;51.164;17.100;2023-05-19T21:23:02;12.60;;;7.80;;
40322;SDS011;26030;51.164;17.100;2023-05-19T21:28:06;11.30;;;7.60;;
40322;SDS011;26030;51.164;17.100;2023-05-19T21:33:10;14.40;;;9.40;;
40322;SDS011;26030;51.164;17.100;2023-05-19T21:38:14;11.30;;;8.50;;
40322;SDS011;26030;51.164;17.100;2023-05-19T21:43:24;10.80;;;8.90;;
40322;SDS011;26030;51.164;17.100;2023-05-19T21:48:29;11.70;;;8.60;;
40322;SDS011;26030;51.164;17.100;2023-05-19T21:53:33;10.90;;;8.10;;
40322;SDS011;26030;51.164;17.100;2023-05-19T21:58:37;10.50;;;8.10;;
40322;SDS011;26030;51.164;17.100;2023-05-19T22:03:41;11.10;;;7.50;;
40322;SDS011;26030;51.164;17.100;2023-05-19T22:08:46;11.80;;;7.70;;
40322;SDS011;26030;51.164;17.100;2023-05-19T22:13:50;11.80;;;7.00;;
40322;SDS011;26030;51.164;17.100;2023-05-19T22:18:58;10.50;;;7.70;;
40322;SDS011;26030;51.164;17.100;2023-05-19T22:24:03;10.90;;;7.10;;
40322;SDS011;26030;51.164;17.100;2023-05-19T22:29:08;7.90;;;6.60;;
40322;SDS011;26030;51.164;17.100;2023-05-19T22:34:14;8.60;;;7.20;;
40322;SDS011;26030;51.164;17.100;2023-05-19T22:39:19;7.50;;;6.10;;
40322;SDS011;26030;51.164;17.100;2023-05-19T22:44:23;10.70;;;6.80;;
40322;SDS011;26030;51.164;17.100;2023-05-19T22:49:27;8.80;;;5.60;;
40322;SDS011;26030;51.164;17.100;2023-05-19T22:54:32;7.50;;;6.40;;
40322;SDS011;26030;51.164;17.100;2023-05-19T22:59:37;8.60;;;6.10;;
40322;SDS011;26030;51.164;17.100;2023-05-19T23:04:40;7.90;;;6.10;;
40322;SDS011;26030;51.164;17.100;2023-05-19T23:09:45;7.20;;;6.30;;
40322;SDS011;26030;51.164;17.100;2023-05-19T23:14:49;9.90;;;6.80;;
40322;SDS011;26030;51.164;17.100;2023-05-19T23:19:53;7.90;;;5.80;;
40322;SDS011;26030;51.164;17.100;2023-05-19T23:24:57;8.80;;;5.70;;
40322;SDS011;26030;51.164;17.100;2023-05-19T23:30:05;6.40;;;5.70;;
40322;SDS011;26030;51.164;17.100;2023-05-19T23:35:11;6.60;;;5.40;;
40322;SDS011;26030;51.164;17.100;2023-05-19T23:40:15;7.30;;;6.50;;
40322;SDS011;26030;51.164;17.100;2023-05-19T23:45:19;9.00;;;6.00;;
40322;SDS011;26030;51.164;17.100;2023-05-19T23:50:23;6.40;;;5.80;;
40322;SDS011;26030;51.164;17.100;2023-05-19T23:55:28;7.70;;;5.50;;
